• Join FlightAware (Why Join?)
  • Login
  • US Flag 
12:29AM EDT


 

Airport Tracker/Info


-or-


 

Live Flight TrackerFlight Track Log ✈ UAL252 ✈ 05-May-2013 ✈ KSFO - KDEN

Flight Track Log - Related Links

Times and Time Zones

All times are in EDT time to prevent confusion due to time zone crossing. See the UAL252 flight status page for this flight to view local times or setup timezone preferences in your user account.

Time Position Orientation Groundspeed Altitude Reporting Facility
EDT Latitude Longitude Course Direction KTS MPH feet Rate Location/Type
12:53PM 37.6000 -122.3167 65° Northeast 197 227 1,700  Level Northern Cal TRACON
12:54PM 37.5833 -122.2333 104° East 237 273 4,300 2,940 Climbing Northern Cal TRACON
12:55PM 37.7113 -121.8594 45° Northeast  Level FlightAware Approximate
12:55PM 37.5833 -122.1500 90° East 270 311 7,300  Level Northern Cal TRACON
12:56PM 37.7953 -121.7428 58° Northeast  Level FlightAware Approximate
12:57PM 37.8499 -121.6003 65° Northeast  Level FlightAware Approximate
12:57PM 37.6656 -121.9453 63° Northeast 340 391 12,100  Level Oakland Center
12:58PM 37.9035 -121.4573 65° Northeast  Level FlightAware Approximate
12:58PM 37.7258 -121.8103 61° Northeast 367 422 15,100  Level Oakland Center
12:59PM 37.7775 -121.6953 60° Northeast 376 433 17,400 1,980 Climbing Oakland Center
01:00PM 37.8294 -121.5728 62° Northeast 395 455 19,200 1,680 Climbing Oakland Center
01:01PM 37.8839 -121.4464 61° Northeast 410 472 20,900 1,560 Climbing Oakland Center
01:02PM 37.9408 -121.3125 62° Northeast 426 490 22,400 1,320 Climbing Oakland Center
01:03PM 38.0006 -121.1756 61° Northeast 439 505 23,600 1,380 Climbing Oakland Center
01:04PM 38.0611 -121.0333 62° Northeast 455 524 25,300 1,740 Climbing Oakland Center
01:05PM 38.1117 -120.8536 70° East 454 522 27,200 1,440 Climbing Oakland Center
01:06PM 38.1428 -120.6981 76° East 455 524 28,300 1,020 Climbing Oakland Center
01:07PM 38.1714 -120.5361 77° East 466 536 29,400 1,260 Climbing Oakland Center
01:08PM 38.2014 -120.3733 77° East 472 543 30,900 1,440 Climbing Oakland Center
01:09PM 38.2292 -120.2128 78° East 470 541 32,400 1,380 Climbing Oakland Center
01:10PM 38.2561 -120.0550 78° East 461 531 33,800 1,260 Climbing Oakland Center
01:11PM 38.2803 -119.9000 79° East 452 520 35,000 540 Climbing Oakland Center
01:12PM 38.3072 -119.7425 78° East 455 524 35,000  Level Oakland Center
01:13PM 38.3358 -119.5761 78° East 477 549 35,000  Level Oakland Center
01:14PM 38.3683 -119.3800 78° East 476 548 35,000  Level Oakland Center
01:15PM 38.3961 -119.2158 78° East 476 548 35,000  Level Oakland Center
01:16PM 38.4231 -119.0517 78° East 476 548 35,000  Level Oakland Center
01:17PM 38.4494 -118.8867 78° East 477 549 35,000  Level Oakland Center
01:18PM 38.4761 -118.7233 78° East 474 545 35,000  Level Oakland Center
01:19PM 38.5022 -118.5594 78° East 474 545 35,000  Level Oakland Center
01:20PM 38.5294 -118.3944 78° East 478 550 35,000  Level Oakland Center
01:21PM 38.5544 -118.2306 79° East 475 547 35,000  Level Oakland Center
01:22PM 38.5819 -118.0514 79° East 473 544 35,000  Level Oakland Center
01:23PM 38.6075 -117.8856 79° East 474 545 35,000  Level Oakland Center
01:24PM 38.6331 -117.7194 79° East 474 545 35,000  Level Oakland Center
01:25PM 38.6581 -117.5519 79° East 475 547 35,000  Level Oakland Center
01:26PM 38.6831 -117.3844 79° East 476 548 35,000  Level Oakland Center
01:27PM 38.6975 -117.2831 80° East 477 549 35,000  Level Salt Lake Center
01:28PM 38.7222 -117.1153 79° East 477 549 35,000  Level Salt Lake Center
01:28PM 38.7325 -117.0478 79° East 478 550 35,000  Level Oakland Center
01:29PM 38.7622 -116.8428 79° East 484 557 35,000  Level Oakland Center
01:30PM 38.7722 -116.7747 79° East 484 557 35,000  Level Salt Lake Center
01:31PM 38.7956 -116.6053 80° East 482 555 35,000  Level Salt Lake Center
01:32PM 38.8117 -116.5039 78° East 482 555 35,000  Level Oakland Center
01:33PM 38.8344 -116.3325 80° East 485 558 35,000  Level Oakland Center
01:33PM 38.8447 -116.2650 79° East 484 557 35,000  Level Salt Lake Center
01:34PM 38.8672 -116.0933 80° East 486 559 35,000  Level Salt Lake Center
01:35PM 38.8908 -115.9219 80° East 486 559 35,000  Level Salt Lake Center
01:36PM 38.9144 -115.7508 80° East 486 559 35,000  Level Salt Lake Center
01:37PM 38.9417 -115.5450 80° East 488 562 35,000  Level Salt Lake Center
01:38PM 38.9619 -115.3794 81° East 485 558 35,000  Level Salt Lake Center
01:39PM 38.9850 -115.2161 80° East 489 563 35,000  Level Salt Lake Center
01:40PM 39.0064 -115.0464 81° East 484 557 35,000  Level Salt Lake Center
01:41PM 39.0328 -114.8408 81° East 485 558 35,000  Level Salt Lake Center
01:42PM 39.0547 -114.6678 81° East 487 560 35,000 420 Level Salt Lake Center
01:43PM 39.0808 -114.4961 79° East 491 565 35,900 960 Climbing Salt Lake Center
01:44PM 39.1100 -114.3336 77° East 475 547 37,000 480 Climbing Salt Lake Center
01:45PM 39.1392 -114.1667 77° East 473 544 37,000  Level Salt Lake Center
01:46PM 39.1706 -113.9939 77° East 488 562 37,000  Level Salt Lake Center
01:47PM 39.2006 -113.8239 77° East 487 560 37,000  Level Salt Lake Center
01:48PM 39.2289 -113.6572 78° East 478 550 37,000  Level Salt Lake Center
01:49PM 39.2642 -113.4542 77° East 484 557 37,000  Level Salt Lake Center
01:50PM 39.2936 -113.2825 77° East 488 562 37,000  Level Salt Lake Center
01:52PM 39.3222 -113.1119 78° East 487 560 37,100  Climbing Salt Lake Center
01:53PM 39.3511 -112.9414 78° East 486 559 37,000 -60 Descending Salt Lake Center
01:54PM 39.3783 -112.7714 78° East 484 557 37,000  Level Salt Lake Center
01:55PM 39.4106 -112.5803 78° East 485 558 37,000  Level Salt Lake Center
01:56PM 39.4392 -112.4075 78° East 493 567 37,000  Level Salt Lake Center
01:57PM 39.4661 -112.2356 78° East 492 566 37,000  Level Salt Lake Center
01:58PM 39.4942 -112.0628 78° East 492 566 37,000  Level Salt Lake Center
01:59PM 39.5208 -111.8914 79° East 490 564 37,000 -60 Level Salt Lake Center
02:00PM 39.5536 -111.6844 78° East 491 565 36,900  Descending Salt Lake Center
02:01PM 39.5803 -111.5069 79° East 501 577 37,100 60 Climbing Salt Lake Center
02:02PM 39.6072 -111.3314 79° East 500 575 37,100 -60 Level Salt Lake Center
02:03PM 39.6331 -111.1542 79° East 500 575 37,000 -60 Descending Salt Lake Center
02:04PM 39.6617 -110.9592 79° East 494 568 37,000  Level Salt Lake Center
02:05PM 39.6875 -110.7942 78° East 491 565 37,000  Level Salt Lake Center
02:06PM 39.7147 -110.5989 80° East 494 568 37,000  Level Salt Lake Center
02:07PM 39.7386 -110.4306 79° East 495 570 37,000  Level Salt Lake Center
02:08PM 39.7636 -110.2617 79° East 497 572 37,100  Climbing Salt Lake Center
02:09PM 39.7917 -110.0664 79° East 494 568 37,000 -60 Descending Salt Lake Center
02:10PM 39.8142 -109.8986 80° East 492 566 37,000  Level Salt Lake Center
02:11PM 39.8403 -109.7028 80° East 491 565 37,000  Level Salt Lake Center
02:12PM 39.8592 -109.5603 80° East 494 568 37,000  Level Denver Center
02:13PM 39.8817 -109.3897 80° East 499 574 37,000  Level Denver Center
02:14PM 39.9083 -109.1914 80° East 496 571 37,000  Level Denver Center
02:15PM 39.9303 -109.0208 80° East 496 571 37,000  Level Denver Center
02:16PM 39.9567 -108.8208 80° East 495 570 37,000  Level Denver Center
02:17PM 39.9786 -108.6489 80° East 496 571 37,000  Level Denver Center
02:18PM 39.9997 -108.4786 81° East 495 570 37,000  Level Denver Center
02:19PM 40.0242 -108.2786 81° East 497 572 37,000  Level Denver Center
02:20PM 40.0450 -108.1089 81° East 495 570 37,000  Level Denver Center
02:21PM 40.0706 -107.9086 80° East 498 573 37,000  Level Denver Center
02:22PM 40.1047 -107.7406 75° East 499 574 37,000  Level Denver Center
02:24PM 40.1500 -107.5172 75° East 499 574 37,000  Level Denver Center
02:25PM 40.1833 -107.3483 75° East 500 575 37,000  Level Denver Center
02:26PM 40.2217 -107.1514 76° East 501 577 37,000 -300 Level Denver Center
02:27PM 40.2567 -106.9819 75° East 503 579 36,500 -1,380 Descending Denver Center
02:28PM 40.2897 -106.8092 76° East 503 579 34,200 -2,340 Descending Denver Center
02:29PM 40.3256 -106.6303 75° East 505 581 31,700 -2,460 Descending Denver Center
02:30PM 40.3642 -106.4206 76° East 491 565 29,200 -2,220 Descending Denver Center
02:31PM 40.3944 -106.2644 76° East 466 536 27,200 -2,160 Descending Denver Center
02:32PM 40.4264 -106.0944 76° East 451 519 24,800 -2,100 Descending Denver Center
02:33PM 40.4364 -105.9403 85° East 428 493 22,900 -1,980 Descending Denver Center
02:34PM 40.4142 -105.7894 101° East 418 481 20,800 -1,800 Descending Denver Center
02:35PM 40.3906 -105.6461 102° East 401 461 19,300 -1,380 Descending Denver Center
02:36PM 40.3697 -105.5131 102° East 374 430 17,700 -1,260 Descending Denver Center
02:37PM 40.3447 -105.3553 102° East 329 379 16,500 -1,500 Descending Denver Center
02:38PM 40.3289 -105.2294 99° East 325 374 14,600 -1,500 Descending Denver Center
02:39PM 40.3125 -105.1153 101° East 318 366 13,500 -720 Descending Denver Center
02:40PM 40.2756 -105.0097 115° Southeast 302 348 13,200 -300 Descending Denver Center
02:41PM 40.2406 -104.9083 114° Southeast 305 351 13,000 -1,320 Descending Denver Center
02:42PM 40.1925 -104.8067 122° Southeast 316 364 10,500 -1,320 Descending Denver Center
02:43PM 40.1267 -104.7647 154° Southeast 252 290 10,300 -840 Descending Denver Center
02:44PM 40.0681 -104.7347 159° South 227 261 8,800 -1,500 Descending Denver Center